KISN

Sloulin Field International Airport

Williston, North Dakota, USA
KISN 230520Z 2306/2406 23005KT P6SM SCT080 BKN140 FM231700 30011G23KT P6SM BKN060 FM231900 32015G29KT 6SM -SN BKN020 FM232300 34020G31KT 6SM -SN BLSN OVC030 FM240300 33017G27KT P6SM SCT040
Issued Valid From Valid To
Jan-23 @ 05:20 UTC
(2 hours ago)
Jan-23 @ 06:00 UTC
(an hour ago)
Jan-24 @ 06:00 UTC
(in 23 hours)
Jan-23 @ 06:00 to Jan-23 @ 17:00
KISN 230520Z 2306/2406 23005KT P6SM SCT080 BKN140
Wind Visibility Clouds
230° at 5 knots Greater than 6 miles
  • Scattered at 8,000' AGL
  • Broken at 14,000' AGL
From Jan-23 @ 17:00 to Jan-23 @ 19:00
FM231700 30011G23KT P6SM BKN060
Wind Visibility Clouds
300° at 11 knots
 Gusting to 23 knots
Greater than 6 miles
  • Broken at 6,000' AGL
From Jan-23 @ 19:00 to Jan-23 @ 23:00
FM231900 32015G29KT 6SM -SN BKN020
Wind Visibility Clouds Conditions
320° at 15 knots
 Gusting to 29 knots
6 miles
  • Broken at 2,000' AGL
  • Light Snow
From Jan-23 @ 23:00 to Jan-24 @ 03:00
FM232300 34020G31KT 6SM -SN BLSN OVC030
Wind Visibility Clouds Conditions
340° at 20 knots
 Gusting to 31 knots
6 miles
  • Overcast at 3,000' AGL
  • Light Snow
  • Blowing
  • Snow
From Jan-24 @ 03:00 to Jan-24 @ 06:00
FM240300 33017G27KT P6SM SCT040
Wind Visibility Clouds
330° at 17 knots
 Gusting to 27 knots
Greater than 6 miles
  • Scattered at 4,000' AGL
KISN 230520Z 2306/2406 23005KT P6SM SCT080 BKN140 FM231700 30011G23KT P6SM BKN060 FM231900 32015G29KT 6SM -SN BKN020 FM232300 34020G31KT 6SM -SN BLSN OVC030 FM240300 33017G27KT P6SM SCT040
Issued Jan-23 @ 05:20 UTC
(2 hours ago)
Valid From Jan-23 @ 06:00 UTC
(an hour ago)
Valid To Jan-24 @ 06:00 UTC
(in 23 hours)
Jan-23 @ 06:00 - Jan-23 @ 17:00
Wind Visibility
230° at 5 knots Greater than 6 miles
Clouds
  • Scattered at 8,000' AGL
  • Broken at 14,000' AGL
From Jan-23 @ 17:00 - Jan-23 @ 19:00
Wind Visibility
300° at 11 knots
 Gusting to 23 knots
Greater than 6 miles
Clouds
  • Broken at 6,000' AGL
From Jan-23 @ 19:00 - Jan-23 @ 23:00
Wind Visibility
320° at 15 knots
 Gusting to 29 knots
6 miles
Clouds
  • Broken at 2,000' AGL
Conditions
  • Light Snow
From Jan-23 @ 23:00 - Jan-24 @ 03:00
Wind Visibility
340° at 20 knots
 Gusting to 31 knots
6 miles
Clouds
  • Overcast at 3,000' AGL
Conditions
  • Light Snow
  • Blowing
  • Snow
From Jan-24 @ 03:00 - Jan-24 @ 06:00
Wind Visibility
330° at 17 knots
 Gusting to 27 knots
Greater than 6 miles
Clouds
  • Scattered at 4,000' AGL